createdAt,value
2019-04-21T00:00:11.868Z,1014.53
2019-04-21T00:01:12.541Z,1014.52
2019-04-21T00:02:08.940Z,1014.48
2019-04-21T00:03:20.617Z,1014.47
2019-04-21T00:04:24.901Z,1014.52
2019-04-21T00:05:33.475Z,1014.46
2019-04-21T00:06:31.556Z,1014.43
2019-04-21T00:07:31.631Z,1014.48
2019-04-21T00:08:37.542Z,1014.37
2019-04-21T00:09:32.592Z,1014.41
2019-04-21T00:10:33.327Z,1014.46
2019-04-21T00:11:39.160Z,1014.40
2019-04-21T00:12:31.135Z,1014.45
2019-04-21T00:13:27.697Z,1014.43
2019-04-21T00:14:22.687Z,1014.36
2019-04-21T00:15:20.522Z,1014.36
2019-04-21T00:16:15.936Z,1014.27
2019-04-21T00:17:16.359Z,1014.38
2019-04-21T00:18:14.404Z,1014.31
2019-04-21T00:19:17.351Z,1014.28
2019-04-21T00:20:26.123Z,1014.31
2019-04-21T00:21:24.434Z,1014.28
2019-04-21T00:22:26.118Z,1014.34
2019-04-21T00:23:32.832Z,1014.36
2019-04-21T00:24:24.920Z,1014.37
2019-04-21T00:25:28.740Z,1014.32
2019-04-21T00:26:35.207Z,1014.38
2019-04-21T00:27:28.314Z,1014.26
2019-04-21T00:28:35.900Z,1014.34
2019-04-21T00:29:41.080Z,1014.30
2019-04-21T00:30:34.254Z,1014.35
2019-04-21T00:31:32.274Z,1014.32
2019-04-21T00:32:30.509Z,1014.33
2019-04-21T00:33:22.535Z,1014.35
2019-04-21T00:34:15.329Z,1014.33
2019-04-21T00:35:18.488Z,1014.23
2019-04-21T00:36:23.777Z,1014.34
2019-04-21T00:37:29.659Z,1014.25
2019-04-21T00:38:43.751Z,1014.31
2019-04-21T00:39:44.023Z,1014.32
2019-04-21T00:40:35.483Z,1014.26
2019-04-21T00:41:40.238Z,1014.29
2019-04-21T00:42:34.340Z,1014.30
2019-04-21T00:43:33.271Z,1014.25
2019-04-21T00:44:24.537Z,1014.31
2019-04-21T00:45:31.492Z,1014.18
2019-04-21T00:46:33.682Z,1014.25
2019-04-21T00:47:51.030Z,1014.21
2019-04-21T00:48:43.933Z,1014.19
2019-04-21T00:49:34.077Z,1014.17
2019-04-21T00:50:40.506Z,1014.23
2019-04-21T00:51:51.094Z,1014.14
2019-04-21T00:52:52.469Z,1014.12
2019-04-21T00:53:43.633Z,1014.13
2019-04-21T00:54:49.833Z,1014.06
2019-04-21T00:55:45.859Z,1014.09
2019-04-21T00:56:40.581Z,1014.11
2019-04-21T00:57:44.939Z,1014.16
2019-04-21T00:58:38.999Z,1014.11
2019-04-21T00:59:40.474Z,1014.04
2019-04-21T01:00:41.159Z,1014.07
2019-04-21T01:01:37.884Z,1014.02
2019-04-21T01:02:48.505Z,1014.01
2019-04-21T01:03:47.431Z,1014.06
2019-04-21T01:04:44.742Z,1014.03
2019-04-21T01:05:48.285Z,1014.02
2019-04-21T01:06:44.511Z,1014.06
2019-04-21T01:07:42.362Z,1014.01
2019-04-21T01:08:41.448Z,1014.03
2019-04-21T01:09:32.712Z,1014.07
2019-04-21T01:10:33.210Z,1014.04
2019-04-21T01:11:47.494Z,1013.98
2019-04-21T01:12:42.016Z,1014.00
2019-04-21T01:13:45.478Z,1014.02
2019-04-21T01:14:50.166Z,1014.02
2019-04-21T01:16:49.772Z,1013.95
2019-04-21T01:17:41.773Z,1013.96
2019-04-21T01:18:45.400Z,1013.90
2019-04-21T01:19:41.154Z,1013.95
2019-04-21T01:20:22.409Z,1013.90
2019-04-21T01:21:20.589Z,1013.89
2019-04-21T01:22:20.766Z,1013.91
2019-04-21T01:23:21.337Z,1013.91
2019-04-21T01:24:29.444Z,1013.89
2019-04-21T01:25:33.154Z,1013.87
2019-04-21T01:26:32.837Z,1013.84
2019-04-21T01:27:48.487Z,1013.87
2019-04-21T01:28:40.122Z,1013.80
2019-04-21T01:29:50.510Z,1013.79
2019-04-21T01:30:48.894Z,1013.86
2019-04-21T01:31:42.140Z,1013.79
2019-04-21T01:32:51.259Z,1013.77
2019-04-21T01:33:44.892Z,1013.77
2019-04-21T01:34:45.520Z,1013.81
2019-04-21T01:35:44.174Z,1013.72
2019-04-21T01:36:45.834Z,1013.76
2019-04-21T01:37:50.462Z,1013.78
2019-04-21T01:38:48.500Z,1013.76
2019-04-21T01:39:51.372Z,1013.81
2019-04-21T01:40:49.301Z,1013.74
2019-04-21T01:41:46.379Z,1013.74
2019-04-21T01:42:45.572Z,1013.76
2019-04-21T01:43:45.769Z,1013.78
2019-04-21T01:44:50.619Z,1013.74
2019-04-21T01:45:44.806Z,1013.79
2019-04-21T01:46:39.489Z,1013.74
2019-04-21T01:47:49.062Z,1013.74
2019-04-21T01:48:46.343Z,1013.85
2019-04-21T01:49:39.493Z,1013.80
2019-04-21T01:50:46.815Z,1013.81
2019-04-21T01:51:59.572Z,1013.90
2019-04-21T01:52:49.935Z,1013.91
2019-04-21T01:53:48.866Z,1013.90
2019-04-21T01:54:48.297Z,1013.87
2019-04-21T01:55:48.521Z,1013.83
2019-04-21T01:56:38.934Z,1013.84
2019-04-21T01:57:42.538Z,1013.86
2019-04-21T01:58:40.216Z,1013.84
2019-04-21T01:59:42.520Z,1013.80
2019-04-21T02:00:45.043Z,1013.84
2019-04-21T02:01:45.839Z,1013.81
2019-04-21T02:02:54.469Z,1013.84
2019-04-21T02:03:52.808Z,1013.80
2019-04-21T02:05:01.340Z,1013.77
2019-04-21T02:05:51.098Z,1013.80
2019-04-21T02:06:50.518Z,1013.76
2019-04-21T02:07:50.540Z,1013.73
2019-04-21T02:08:50.719Z,1013.77
2019-04-21T02:09:55.412Z,1013.75
2019-04-21T02:10:55.012Z,1013.77
2019-04-21T02:11:55.132Z,1013.75
2019-04-21T02:12:50.872Z,1013.75
2019-04-21T02:13:57.642Z,1013.77
2019-04-21T02:14:59.216Z,1013.73
2019-04-21T02:15:55.567Z,1013.71
2019-04-21T02:16:52.068Z,1013.81
2019-04-21T02:17:53.731Z,1013.69
2019-04-21T02:18:49.950Z,1013.76
2019-04-21T02:19:45.886Z,1013.78
2019-04-21T02:20:41.292Z,1013.78
2019-04-21T02:21:43.478Z,1013.74
2019-04-21T02:23:10.068Z,1013.71
2019-04-21T02:23:59.068Z,1013.70
2019-04-21T02:24:59.883Z,1013.72
2019-04-21T02:25:57.416Z,1013.70
2019-04-21T02:26:57.259Z,1013.65
2019-04-21T02:27:59.498Z,1013.63
2019-04-21T02:29:20.629Z,1013.62
2019-04-21T02:29:55.645Z,1013.56
2019-04-21T02:32:08.936Z,1013.56
2019-04-21T02:33:08.799Z,1013.57
2019-04-21T02:34:06.816Z,1013.61
2019-04-21T02:37:22.939Z,1013.65
2019-04-21T02:39:15.685Z,1013.60
2019-04-21T02:40:59.107Z,1013.59
2019-04-21T02:42:01.764Z,1013.56
2019-04-21T02:45:08.769Z,1013.55
2019-04-21T02:46:12.463Z,1013.52
2019-04-21T02:46:54.759Z,1013.56
2019-04-21T02:50:13.437Z,1013.51
2019-04-21T02:52:13.382Z,1013.52
2019-04-21T02:53:11.464Z,1013.50
2019-04-21T02:56:09.801Z,1013.46
2019-04-21T02:57:08.560Z,1013.46
2019-04-21T02:58:16.055Z,1013.40
2019-04-21T02:59:15.240Z,1013.44
2019-04-21T03:01:12.473Z,1013.34
2019-04-21T03:02:16.279Z,1013.38
2019-04-21T03:04:10.557Z,1013.32
2019-04-21T03:05:15.693Z,1013.37
2019-04-21T03:06:12.876Z,1013.36
2019-04-21T03:07:13.037Z,1013.35
2019-04-21T03:09:10.964Z,1013.39
2019-04-21T03:10:11.838Z,1013.30
2019-04-21T03:11:17.613Z,1013.36
2019-04-21T03:12:11.201Z,1013.37
2019-04-21T03:13:13.920Z,1013.33
2019-04-21T03:14:16.389Z,1013.30
2019-04-21T03:15:15.638Z,1013.36
2019-04-21T03:16:16.982Z,1013.32
2019-04-21T03:17:18.270Z,1013.26
2019-04-21T03:18:12.954Z,1013.23
2019-04-21T03:19:22.824Z,1013.24
2019-04-21T03:23:19.034Z,1013.11
2019-04-21T03:25:26.895Z,1013.18
2019-04-21T03:26:20.257Z,1013.13
2019-04-21T03:28:13.897Z,1013.10
2019-04-21T03:29:24.478Z,1013.08
2019-04-21T03:33:06.108Z,1013.05
2019-04-21T03:35:53.429Z,1013.02
2019-04-21T03:38:19.152Z,1012.97
2019-04-21T03:39:07.741Z,1012.96
2019-04-21T03:40:16.799Z,1013.00
2019-04-21T03:42:36.817Z,1012.99
2019-04-21T03:43:20.390Z,1013.02
2019-04-21T03:44:17.087Z,1013.00
2019-04-21T03:45:23.687Z,1013.00
2019-04-21T03:46:21.116Z,1013.02
2019-04-21T03:47:23.547Z,1012.97
2019-04-21T03:48:17.222Z,1012.94
2019-04-21T03:49:32.507Z,1013.01
2019-04-21T03:50:20.550Z,1012.97
2019-04-21T03:52:22.214Z,1013.01
2019-04-21T03:53:22.671Z,1013.01
2019-04-21T03:54:21.913Z,1013.01
2019-04-21T03:55:41.392Z,1012.93
2019-04-21T03:56:27.776Z,1013.00
2019-04-21T03:57:42.351Z,1013.00
2019-04-21T03:59:19.675Z,1013.05
2019-04-21T04:00:36.474Z,1012.98
2019-04-21T04:01:16.269Z,1013.01
2019-04-21T04:02:25.743Z,1013.02
2019-04-21T04:05:44.930Z,1012.94
2019-04-21T04:06:20.500Z,1012.92
2019-04-21T04:07:32.702Z,1012.99
2019-04-21T04:08:31.552Z,1012.97
2019-04-21T04:10:22.832Z,1012.90
2019-04-21T04:11:35.130Z,1012.95
2019-04-21T04:12:24.053Z,1012.96
2019-04-21T04:13:34.006Z,1012.96
2019-04-21T04:14:29.249Z,1012.96
2019-04-21T04:15:34.636Z,1012.94
2019-04-21T04:16:28.821Z,1012.95
2019-04-21T04:17:26.654Z,1012.97
2019-04-21T04:18:42.734Z,1012.99
2019-04-21T04:19:30.493Z,1013.00
2019-04-21T04:20:28.107Z,1012.97
2019-04-21T04:21:30.765Z,1012.97
2019-04-21T04:23:35.664Z,1012.97
2019-04-21T04:25:27.407Z,1012.91
2019-04-21T04:26:35.074Z,1012.92
2019-04-21T04:27:46.795Z,1012.95
2019-04-21T04:28:28.372Z,1012.89
2019-04-21T04:29:26.323Z,1012.94
2019-04-21T04:31:30.123Z,1012.95
2019-04-21T04:32:28.749Z,1012.91
2019-04-21T04:34:39.130Z,1012.91
2019-04-21T04:35:34.037Z,1012.90
2019-04-21T04:36:43.383Z,1012.88
2019-04-21T04:37:34.749Z,1012.88
2019-04-21T04:38:33.962Z,1012.87
2019-04-21T04:40:31.524Z,1012.83
2019-04-21T04:41:33.604Z,1012.92
2019-04-21T04:42:45.845Z,1012.86
2019-04-21T04:43:30.489Z,1012.91
2019-04-21T04:44:50.067Z,1012.89
2019-04-21T04:45:37.306Z,1012.88
2019-04-21T04:46:29.349Z,1012.93
2019-04-21T04:47:29.439Z,1012.97
2019-04-21T04:48:41.972Z,1012.88
2019-04-21T04:49:43.610Z,1012.85
2019-04-21T04:50:45.286Z,1012.93
2019-04-21T04:51:56.258Z,1012.87
2019-04-21T04:52:34.543Z,1012.89
2019-04-21T04:53:43.985Z,1012.83
2019-04-21T04:55:33.676Z,1012.84
2019-04-21T04:56:29.142Z,1012.87
2019-04-21T04:58:44.656Z,1012.90
2019-04-21T05:00:52.087Z,1012.86
2019-04-21T05:01:51.408Z,1012.95
2019-04-21T05:02:37.597Z,1012.87
2019-04-21T05:03:44.520Z,1012.86
2019-04-21T05:04:37.535Z,1012.88
2019-04-21T05:05:48.882Z,1012.88
2019-04-21T05:06:42.148Z,1012.88
2019-04-21T05:08:49.380Z,1012.90
2019-04-21T05:09:33.983Z,1012.95
2019-04-21T05:10:41.321Z,1012.90
2019-04-21T05:12:29.388Z,1012.97
2019-04-21T05:13:37.562Z,1012.92
2019-04-21T05:14:35.454Z,1012.89
2019-04-21T05:15:28.568Z,1012.87
2019-04-21T05:16:41.083Z,1012.89
2019-04-21T05:17:37.770Z,1012.87
2019-04-21T05:18:35.146Z,1012.83
2019-04-21T05:19:34.868Z,1012.84
2019-04-21T05:20:24.951Z,1012.81
2019-04-21T05:21:34.659Z,1012.88
2019-04-21T05:23:24.673Z,1012.84
2019-04-21T05:24:23.021Z,1012.84
2019-04-21T05:25:19.568Z,1012.80
2019-04-21T05:26:18.975Z,1012.88
2019-04-21T05:27:21.886Z,1012.92
2019-04-21T05:28:16.433Z,1012.90
2019-04-21T05:29:15.842Z,1012.89
2019-04-21T05:30:33.957Z,1012.84
2019-04-21T05:31:34.959Z,1012.80
2019-04-21T05:32:36.186Z,1012.80
2019-04-21T05:33:33.237Z,1012.76
2019-04-21T05:34:27.621Z,1012.80
2019-04-21T05:35:26.685Z,1012.69
2019-04-21T05:36:27.823Z,1012.72
2019-04-21T05:37:25.855Z,1012.78
2019-04-21T05:38:27.430Z,1012.73
2019-04-21T05:39:23.114Z,1012.79
2019-04-21T05:40:23.638Z,1012.73
2019-04-21T05:41:24.543Z,1012.81
2019-04-21T05:42:23.846Z,1012.73
2019-04-21T05:43:28.542Z,1012.77
2019-04-21T05:44:35.473Z,1012.76
2019-04-21T05:45:47.404Z,1012.72
2019-04-21T05:46:32.288Z,1012.74
2019-04-21T05:47:35.496Z,1012.78
2019-04-21T05:48:45.482Z,1012.79
2019-04-21T05:49:29.467Z,1012.74
2019-04-21T05:50:30.453Z,1012.70
2019-04-21T05:51:27.147Z,1012.79
2019-04-21T05:52:29.326Z,1012.73
2019-04-21T05:54:39.057Z,1012.72
2019-04-21T05:55:41.926Z,1012.71
2019-04-21T05:56:35.424Z,1012.69
2019-04-21T05:57:33.345Z,1012.67
2019-04-21T05:58:33.369Z,1012.68
2019-04-21T05:59:35.131Z,1012.68
2019-04-21T06:00:52.919Z,1012.65
2019-04-21T06:01:58.431Z,1012.69
2019-04-21T06:02:53.533Z,1012.70
2019-04-21T06:03:42.744Z,1012.71
2019-04-21T06:04:52.619Z,1012.71
2019-04-21T06:06:39.469Z,1012.66
2019-04-21T06:07:35.699Z,1012.70
2019-04-21T06:08:38.262Z,1012.62
2019-04-21T06:09:40.960Z,1012.64
2019-04-21T06:10:41.960Z,1012.56
2019-04-21T06:11:40.715Z,1012.65
2019-04-21T06:12:40.633Z,1012.60
2019-04-21T06:13:46.451Z,1012.63
2019-04-21T06:14:37.043Z,1012.60
2019-04-21T06:16:43.017Z,1012.64
2019-04-21T06:18:44.946Z,1012.63
2019-04-21T06:19:46.197Z,1012.59
2019-04-21T06:20:44.774Z,1012.62
2019-04-21T06:21:33.234Z,1012.61
2019-04-21T06:22:44.892Z,1012.64
2019-04-21T06:23:36.732Z,1012.62
2019-04-21T06:24:42.340Z,1012.58
2019-04-21T06:25:51.757Z,1012.64
2019-04-21T06:27:42.442Z,1012.53
2019-04-21T06:28:42.653Z,1012.55
2019-04-21T06:29:46.511Z,1012.56
2019-04-21T06:30:52.824Z,1012.49
2019-04-21T06:32:16.324Z,1012.52
2019-04-21T06:32:46.810Z,1012.57
2019-04-21T06:33:41.705Z,1012.54
2019-04-21T06:34:59.080Z,1012.53
2019-04-21T06:36:07.754Z,1012.55
2019-04-21T06:36:42.534Z,1012.60
2019-04-21T06:38:54.105Z,1012.51
2019-04-21T06:39:59.066Z,1012.54
2019-04-21T06:40:42.467Z,1012.53
2019-04-21T06:41:43.173Z,1012.48
2019-04-21T06:42:40.300Z,1012.51
2019-04-21T06:43:48.472Z,1012.57
2019-04-21T06:44:51.599Z,1012.52
2019-04-21T06:45:50.466Z,1012.50
2019-04-21T06:46:44.908Z,1012.57
2019-04-21T06:47:53.478Z,1012.56
2019-04-21T06:48:44.062Z,1012.55
2019-04-21T06:49:40.072Z,1012.52
2019-04-21T06:50:45.823Z,1012.61
2019-04-21T06:51:43.270Z,1012.56
2019-04-21T06:53:52.494Z,1012.54
2019-04-21T06:54:53.285Z,1012.52
2019-04-21T06:55:44.206Z,1012.49
2019-04-21T06:56:46.468Z,1012.45
2019-04-21T06:57:46.308Z,1012.42
2019-04-21T06:58:48.003Z,1012.41
2019-04-21T06:59:43.387Z,1012.43
2019-04-21T07:00:41.105Z,1012.41
2019-04-21T07:02:59.979Z,1012.41
2019-04-21T07:03:54.302Z,1012.37
2019-04-21T07:04:50.238Z,1012.37
2019-04-21T07:05:52.715Z,1012.37
2019-04-21T07:06:52.036Z,1012.40
2019-04-21T07:08:05.186Z,1012.33
2019-04-21T07:08:54.400Z,1012.32
2019-04-21T07:09:53.051Z,1012.34
2019-04-21T07:10:48.785Z,1012.32
2019-04-21T07:11:44.996Z,1012.31
2019-04-21T07:12:46.712Z,1012.28
2019-04-21T07:14:48.991Z,1012.32
2019-04-21T07:15:53.555Z,1012.28
2019-04-21T07:16:50.993Z,1012.24
2019-04-21T07:17:45.669Z,1012.26
2019-04-21T07:18:58.647Z,1012.24
2019-04-21T07:20:50.085Z,1012.26
2019-04-21T07:21:50.987Z,1012.28
2019-04-21T07:22:48.226Z,1012.26
2019-04-21T07:23:57.215Z,1012.25
2019-04-21T07:24:51.942Z,1012.22
2019-04-21T07:25:53.203Z,1012.22
2019-04-21T07:26:51.584Z,1012.16
2019-04-21T07:27:52.426Z,1012.16
2019-04-21T07:28:56.337Z,1012.15
2019-04-21T07:29:55.079Z,1012.20
2019-04-21T07:30:57.661Z,1012.14
2019-04-21T07:31:59.227Z,1012.17
2019-04-21T07:32:55.317Z,1012.18
2019-04-21T07:34:19.723Z,1012.12
2019-04-21T07:34:54.328Z,1012.18
2019-04-21T07:35:54.024Z,1012.15
2019-04-21T07:36:55.887Z,1012.11
2019-04-21T07:37:53.668Z,1012.08
2019-04-21T07:38:49.786Z,1012.04
2019-04-21T07:39:49.957Z,1012.08
2019-04-21T07:40:48.361Z,1012.07
2019-04-21T07:41:49.702Z,1012.09
2019-04-21T07:42:49.708Z,1012.07
2019-04-21T07:43:48.899Z,1012.04
2019-04-21T07:44:46.016Z,1012.10
2019-04-21T07:45:49.622Z,1012.00
2019-04-21T07:46:44.101Z,1012.06
2019-04-21T07:48:54.195Z,1012.01
2019-04-21T07:49:59.170Z,1012.00
2019-04-21T07:50:57.784Z,1012.01
2019-04-21T07:51:56.651Z,1012.02
2019-04-21T07:53:01.542Z,1012.06
2019-04-21T07:54:06.260Z,1011.98
2019-04-21T07:55:07.984Z,1011.99
2019-04-21T07:55:37.293Z,1012.00
2019-04-21T07:56:39.880Z,1012.00
2019-04-21T07:57:52.132Z,1011.91
2019-04-21T07:58:58.269Z,1011.95
2019-04-21T08:00:12.457Z,1011.94
2019-04-21T08:00:56.345Z,1011.90
2019-04-21T08:01:55.203Z,1011.89
2019-04-21T08:02:56.754Z,1011.89
2019-04-21T08:04:03.929Z,1011.82
2019-04-21T08:05:02.976Z,1011.81
2019-04-21T08:05:59.049Z,1011.85
2019-04-21T08:07:02.797Z,1011.82
2019-04-21T08:08:06.501Z,1011.80
2019-04-21T08:08:57.887Z,1011.74
2019-04-21T08:09:51.019Z,1011.76
2019-04-21T08:10:57.326Z,1011.71
2019-04-21T08:11:52.379Z,1011.73
2019-04-21T08:12:54.284Z,1011.68
2019-04-21T08:13:57.884Z,1011.64
2019-04-21T08:15:01.277Z,1011.65
2019-04-21T08:15:58.001Z,1011.56
2019-04-21T08:16:58.856Z,1011.56
2019-04-21T08:18:04.653Z,1011.53
2019-04-21T08:19:03.229Z,1011.49
2019-04-21T08:19:56.106Z,1011.45
2019-04-21T08:21:02.718Z,1011.36
2019-04-21T08:22:06.058Z,1011.35
2019-04-21T08:23:01.017Z,1011.35
2019-04-21T08:23:55.342Z,1011.27
2019-04-21T08:24:57.714Z,1011.40
2019-04-21T08:27:05.348Z,1011.42
2019-04-21T08:28:02.697Z,1011.29
2019-04-21T08:29:04.368Z,1011.28
2019-04-21T08:29:58.351Z,1011.20
2019-04-21T08:31:01.776Z,1011.22
2019-04-21T08:32:09.769Z,1011.21
2019-04-21T08:33:09.252Z,1011.23
2019-04-21T08:34:08.305Z,1011.20
2019-04-21T08:35:22.755Z,1011.20
2019-04-21T08:36:25.009Z,1011.23
2019-04-21T08:37:02.384Z,1011.08
2019-04-21T08:38:01.066Z,1011.11
2019-04-21T08:38:59.782Z,1011.13
2019-04-21T08:41:01.943Z,1011.08
2019-04-21T08:42:06.560Z,1011.07
2019-04-21T08:43:02.800Z,1011.02
2019-04-21T08:43:57.495Z,1010.99
2019-04-21T08:45:02.565Z,1011.03
2019-04-21T08:46:01.581Z,1011.00
2019-04-21T08:47:07.494Z,1011.00
2019-04-21T08:48:04.267Z,1011.09
2019-04-21T08:49:03.831Z,1011.06
2019-04-21T08:50:00.965Z,1011.02
2019-04-21T08:51:14.830Z,1011.01
2019-04-21T08:52:28.373Z,1011.05
2019-04-21T08:53:19.786Z,1011.05
2019-04-21T08:54:09.528Z,1010.99
2019-04-21T08:55:07.192Z,1010.97
2019-04-21T08:56:12.379Z,1011.00
2019-04-21T08:57:10.112Z,1011.00
2019-04-21T09:00:05.002Z,1010.97
2019-04-21T09:01:14.130Z,1010.92
2019-04-21T09:02:09.183Z,1010.88
2019-04-21T09:03:06.478Z,1010.97
2019-04-21T09:04:11.673Z,1010.98
2019-04-21T09:05:09.437Z,1010.89
2019-04-21T09:06:10.598Z,1010.99
2019-04-21T09:08:06.710Z,1010.91
2019-04-21T09:09:03.607Z,1010.76
2019-04-21T09:10:02.955Z,1010.88
2019-04-21T09:11:05.325Z,1010.81
2019-04-21T09:12:04.644Z,1010.78
2019-04-21T09:14:07.527Z,1010.77
2019-04-21T09:15:08.577Z,1010.77
2019-04-21T09:16:06.573Z,1010.76
2019-04-21T09:17:00.425Z,1010.70
2019-04-21T09:17:59.636Z,1010.72
2019-04-21T09:18:59.737Z,1010.68
2019-04-21T09:20:13.452Z,1010.62
2019-04-21T09:21:05.508Z,1010.58
2019-04-21T09:22:05.669Z,1010.66
2019-04-21T09:24:11.525Z,1010.56
2019-04-21T09:25:01.666Z,1010.52
2019-04-21T09:26:05.163Z,1010.58
2019-04-21T09:27:03.556Z,1010.52
2019-04-21T09:28:04.068Z,1010.56
2019-04-21T09:29:00.681Z,1010.55
2019-04-21T09:29:54.239Z,1010.41
2019-04-21T09:30:57.297Z,1010.38
2019-04-21T09:31:54.078Z,1010.43
2019-04-21T09:32:53.127Z,1010.32
2019-04-21T09:33:52.580Z,1010.40
2019-04-21T09:34:52.404Z,1010.39
2019-04-21T09:35:56.540Z,1010.35
2019-04-21T09:36:54.786Z,1010.31
2019-04-21T09:38:00.355Z,1010.29
2019-04-21T09:39:00.260Z,1010.31
2019-04-21T09:39:55.160Z,1010.27
2019-04-21T09:40:54.393Z,1010.28
2019-04-21T09:41:54.546Z,1010.27
2019-04-21T09:42:57.507Z,1010.23
2019-04-21T09:43:53.987Z,1010.21
2019-04-21T09:44:55.597Z,1010.24
2019-04-21T09:45:51.973Z,1010.19
2019-04-21T09:46:54.325Z,1010.20
2019-04-21T09:48:00.814Z,1010.17
2019-04-21T09:48:59.246Z,1010.24
2019-04-21T09:49:52.431Z,1010.11
2019-04-21T09:50:50.600Z,1010.06
2019-04-21T09:51:50.799Z,1010.08
2019-04-21T09:52:57.762Z,1010.05
2019-04-21T09:54:00.861Z,1010.05
2019-04-21T09:55:03.959Z,1010.06
2019-04-21T09:55:58.094Z,1010.04
2019-04-21T09:56:58.508Z,1009.98
2019-04-21T09:57:57.613Z,1010.02
2019-04-21T09:59:05.549Z,1010.02
2019-04-21T10:00:02.122Z,1009.99
2019-04-21T10:01:04.892Z,1009.90
2019-04-21T10:02:06.580Z,1009.85
2019-04-21T10:03:02.641Z,1009.88
2019-04-21T10:03:59.680Z,1009.87
2019-04-21T10:04:55.177Z,1009.82
2019-04-21T10:05:54.108Z,1009.78
2019-04-21T10:06:54.432Z,1009.81
2019-04-21T10:07:53.590Z,1009.76
2019-04-21T10:08:58.567Z,1009.76
2019-04-21T10:09:55.975Z,1009.73
2019-04-21T10:10:54.717Z,1009.66
2019-04-21T10:11:54.870Z,1009.69
2019-04-21T10:12:54.484Z,1009.68
2019-04-21T10:13:55.171Z,1009.59
2019-04-21T10:14:55.337Z,1009.65
2019-04-21T10:15:56.292Z,1009.70
2019-04-21T10:16:58.084Z,1009.62
2019-04-21T10:17:56.101Z,1009.63
2019-04-21T10:18:56.675Z,1009.60
2019-04-21T10:19:55.723Z,1009.58
2019-04-21T10:20:57.015Z,1009.53
2019-04-21T10:21:57.062Z,1009.57
2019-04-21T10:22:57.410Z,1009.51
2019-04-21T10:23:57.805Z,1009.50
2019-04-21T10:24:58.504Z,1009.44
2019-04-21T10:25:56.868Z,1009.44
2019-04-21T10:26:58.969Z,1009.47
2019-04-21T10:27:59.061Z,1009.36
2019-04-21T10:29:03.359Z,1009.39
2019-04-21T10:30:01.474Z,1009.43
2019-04-21T10:30:58.552Z,1009.36
2019-04-21T10:31:59.515Z,1009.29
2019-04-21T10:32:58.508Z,1009.38
2019-04-21T10:33:58.928Z,1009.32
2019-04-21T10:34:59.154Z,1009.30
2019-04-21T10:35:59.177Z,1009.17
2019-04-21T10:36:58.970Z,1009.17
2019-04-21T10:38:14.030Z,1009.19
2019-04-21T10:39:02.321Z,1009.20
2019-04-21T10:40:00.430Z,1009.13
2019-04-21T10:40:59.611Z,1009.13
2019-04-21T10:42:01.402Z,1009.11
2019-04-21T10:43:00.476Z,1009.04
2019-04-21T10:44:01.003Z,1009.11
2019-04-21T10:45:01.076Z,1009.03
2019-04-21T10:46:01.230Z,1008.99
2019-04-21T10:47:00.776Z,1009.05
2019-04-21T10:48:01.034Z,1009.07
2019-04-21T10:49:02.029Z,1009.04
2019-04-21T10:50:02.398Z,1008.99
2019-04-21T10:51:01.372Z,1008.93
2019-04-21T10:52:01.659Z,1008.95
2019-04-21T10:53:02.934Z,1008.96
2019-04-21T10:54:02.065Z,1008.92
2019-04-21T10:55:16.667Z,1008.87
2019-04-21T10:56:15.428Z,1008.91
2019-04-21T10:57:04.547Z,1008.86
2019-04-21T10:58:02.723Z,1008.83
2019-04-21T10:59:02.867Z,1008.82
2019-04-21T11:00:04.481Z,1008.78
2019-04-21T11:01:04.159Z,1008.78
2019-04-21T11:02:03.472Z,1008.78
2019-04-21T11:03:04.727Z,1008.67
2019-04-21T11:04:07.547Z,1008.70
2019-04-21T11:05:05.026Z,1008.69
2019-04-21T11:06:04.201Z,1008.64
2019-04-21T11:07:10.821Z,1008.61
2019-04-21T11:08:15.500Z,1008.63
2019-04-21T11:09:07.312Z,1008.49
2019-04-21T11:10:04.922Z,1008.50
2019-04-21T11:11:05.744Z,1008.47
2019-04-21T11:12:06.229Z,1008.52
2019-04-21T11:13:05.381Z,1008.47
2019-04-21T11:14:06.560Z,1008.43
2019-04-21T11:15:05.705Z,1008.51
2019-04-21T11:16:05.895Z,1008.48
2019-04-21T11:17:06.120Z,1008.44
2019-04-21T11:18:08.052Z,1008.49
2019-04-21T11:19:06.576Z,1008.46
2019-04-21T11:20:06.747Z,1008.40
2019-04-21T11:21:09.049Z,1008.38
2019-04-21T11:22:07.211Z,1008.38
2019-04-21T11:23:08.191Z,1008.29
2019-04-21T11:24:08.208Z,1008.27
2019-04-21T11:25:07.529Z,1008.33
2019-04-21T11:26:07.832Z,1008.26
2019-04-21T11:27:08.791Z,1008.28
2019-04-21T11:28:09.017Z,1008.22
2019-04-21T11:29:08.358Z,1008.13
2019-04-21T11:30:09.525Z,1008.16
2019-04-21T11:31:09.116Z,1008.22
2019-04-21T11:32:09.987Z,1008.17
2019-04-21T11:33:09.140Z,1008.17
2019-04-21T11:34:11.310Z,1008.23
2019-04-21T11:35:09.532Z,1008.12
2019-04-21T11:36:09.623Z,1008.16
2019-04-21T11:37:10.223Z,1008.08
2019-04-21T11:38:16.639Z,1008.06
2019-04-21T11:39:22.003Z,1008.03
2019-04-21T11:40:15.971Z,1008.05
2019-04-21T11:41:13.787Z,1008.03
2019-04-21T11:42:12.102Z,1008.03
2019-04-21T11:43:12.057Z,1007.95
2019-04-21T11:44:12.100Z,1007.95
2019-04-21T11:45:12.538Z,1007.95
2019-04-21T11:46:12.705Z,1007.95
2019-04-21T11:47:12.225Z,1007.98
2019-04-21T11:48:12.447Z,1007.90
2019-04-21T11:49:13.153Z,1007.86
2019-04-21T11:50:12.870Z,1007.84
2019-04-21T11:51:13.121Z,1007.90
2019-04-21T11:52:13.287Z,1007.83
2019-04-21T11:53:12.871Z,1007.85
2019-04-21T11:54:13.033Z,1007.87
2019-04-21T11:55:14.352Z,1007.83
2019-04-21T11:56:14.704Z,1007.81
2019-04-21T11:57:22.071Z,1007.82
2019-04-21T11:58:16.021Z,1007.86
2019-04-21T11:59:15.373Z,1007.86
2019-04-21T12:00:15.584Z,1007.87
2019-04-21T12:01:14.326Z,1007.79
2019-04-21T12:02:15.179Z,1007.77
2019-04-21T12:03:15.716Z,1007.73
2019-04-21T12:04:16.210Z,1007.76
2019-04-21T12:05:17.327Z,1007.74
2019-04-21T12:06:15.559Z,1007.70
2019-04-21T12:07:17.562Z,1007.64
2019-04-21T12:08:23.018Z,1007.70
2019-04-21T12:09:18.914Z,1007.71
2019-04-21T12:10:17.671Z,1007.68
2019-04-21T12:11:16.145Z,1007.68
2019-04-21T12:12:17.028Z,1007.63
2019-04-21T12:13:16.555Z,1007.64
2019-04-21T12:14:16.633Z,1007.58
2019-04-21T12:15:16.849Z,1007.61
2019-04-21T12:16:17.105Z,1007.56
2019-04-21T12:17:18.367Z,1007.55
2019-04-21T12:18:19.744Z,1007.54
2019-04-21T12:19:18.685Z,1007.53
2019-04-21T12:20:18.828Z,1007.51
2019-04-21T12:21:18.992Z,1007.47
2019-04-21T12:22:22.166Z,1007.42
2019-04-21T12:23:20.468Z,1007.41
2019-04-21T12:24:19.441Z,1007.40
2019-04-21T12:25:18.829Z,1007.39
2019-04-21T12:26:20.071Z,1007.36
2019-04-21T12:27:20.340Z,1007.39
2019-04-21T12:28:20.137Z,1007.38
2019-04-21T12:29:20.742Z,1007.36
2019-04-21T12:30:19.855Z,1007.40
2019-04-21T12:31:21.208Z,1007.30
2019-04-21T12:32:20.257Z,1007.34
2019-04-21T12:33:22.310Z,1007.34
2019-04-21T12:34:21.857Z,1007.31
2019-04-21T12:35:21.841Z,1007.28
2019-04-21T12:36:21.991Z,1007.33
2019-04-21T12:37:22.752Z,1007.24
2019-04-21T12:38:32.373Z,1007.24
2019-04-21T12:39:23.158Z,1007.18
2019-04-21T12:40:21.334Z,1007.13
2019-04-21T12:41:22.584Z,1007.09
2019-04-21T12:42:22.792Z,1007.10
2019-04-21T12:43:21.845Z,1007.18
2019-04-21T12:44:22.573Z,1007.07
2019-04-21T12:45:22.246Z,1007.04
2019-04-21T12:46:22.485Z,1007.05
2019-04-21T12:47:23.787Z,1007.00
2019-04-21T12:48:38.038Z,1007.00
2019-04-21T12:49:23.019Z,1006.96
2019-04-21T12:50:23.610Z,1006.97
2019-04-21T12:51:25.861Z,1006.89
2019-04-21T12:52:23.985Z,1006.93
2019-04-21T12:53:23.715Z,1006.92
2019-04-21T12:54:23.937Z,1006.86
2019-04-21T12:55:30.653Z,1006.83
2019-04-21T12:56:25.408Z,1006.81
2019-04-21T12:57:25.478Z,1006.84
2019-04-21T12:58:25.558Z,1006.87
2019-04-21T12:59:24.946Z,1006.80
2019-04-21T13:00:25.214Z,1006.79
2019-04-21T13:01:25.285Z,1006.74
2019-04-21T13:02:25.508Z,1006.81
2019-04-21T13:03:28.290Z,1006.68
2019-04-21T13:04:27.838Z,1006.76
2019-04-21T13:05:27.379Z,1006.70
2019-04-21T13:06:27.642Z,1006.69
2019-04-21T13:07:27.641Z,1006.69
2019-04-21T13:08:27.139Z,1006.71
2019-04-21T13:09:29.180Z,1006.66